createdAt,value
2017-10-12T00:00:15.828Z,0
2017-10-12T00:01:25.794Z,0
2017-10-12T00:02:36.088Z,0
2017-10-12T00:03:46.067Z,0
2017-10-12T00:04:56.386Z,0
2017-10-12T00:06:06.277Z,0
2017-10-12T00:07:16.587Z,0
2017-10-12T00:08:26.885Z,0
2017-10-12T00:09:37.192Z,0
2017-10-12T00:10:47.485Z,0
2017-10-12T00:11:58.032Z,0
2017-10-12T00:13:08.021Z,0
2017-10-12T00:14:18.312Z,0
2017-10-12T00:15:28.614Z,0
2017-10-12T00:16:38.921Z,0
2017-10-12T00:17:49.483Z,0
2017-10-12T00:18:59.797Z,0
2017-10-12T00:20:10.083Z,0
2017-10-12T00:21:20.055Z,0
2017-10-12T00:22:30.354Z,0
2017-10-12T00:23:40.898Z,0
2017-10-12T00:24:50.872Z,0
2017-10-12T00:26:01.174Z,0
2017-10-12T00:27:11.140Z,0
2017-10-12T00:28:21.467Z,0
2017-10-12T00:29:31.694Z,0
2017-10-12T00:30:41.990Z,0
2017-10-12T00:31:52.281Z,0
2017-10-12T00:33:02.574Z,0
2017-10-12T00:34:12.553Z,0
2017-10-12T00:35:23.121Z,0
2017-10-12T00:36:33.415Z,0
2017-10-12T00:37:43.710Z,0
2017-10-12T00:38:53.679Z,0
2017-10-12T00:40:03.973Z,0
2017-10-12T00:41:14.526Z,0
2017-10-12T00:42:24.818Z,0
2017-10-12T00:43:34.795Z,0
2017-10-12T00:44:44.770Z,0
2017-10-12T00:45:55.083Z,0
2017-10-12T00:47:05.680Z,0
2017-10-12T00:48:15.648Z,0
2017-10-12T00:49:25.957Z,0
2017-10-12T00:50:36.274Z,0
2017-10-12T00:51:46.568Z,0
2017-10-12T00:52:56.783Z,0
2017-10-12T00:54:06.751Z,0
2017-10-12T00:55:17.048Z,0
2017-10-12T00:56:27.346Z,0
2017-10-12T00:57:37.637Z,0
2017-10-12T00:58:47.853Z,0
2017-10-12T00:59:58.135Z,0
2017-10-12T01:01:08.106Z,0
2017-10-12T01:02:18.408Z,0
2017-10-12T01:03:28.377Z,0
2017-10-12T01:04:38.929Z,0
2017-10-12T01:05:48.908Z,0
2017-10-12T01:06:59.196Z,0
2017-10-12T01:08:09.173Z,0
2017-10-12T01:09:19.143Z,0
2017-10-12T01:10:29.363Z,0
2017-10-12T01:11:39.014Z,0
2017-10-12T01:12:49.314Z,0
2017-10-12T01:13:59.285Z,0
2017-10-12T01:15:09.582Z,0
2017-10-12T01:16:19.832Z,0
2017-10-12T01:17:30.124Z,0
2017-10-12T01:18:39.759Z,0
2017-10-12T01:19:50.060Z,0
2017-10-12T01:21:00.365Z,0
2017-10-12T01:22:11.310Z,0
2017-10-12T01:23:21.597Z,0
2017-10-12T01:24:31.898Z,0
2017-10-12T01:25:42.210Z,0
2017-10-12T01:26:52.529Z,0
2017-10-12T01:28:03.087Z,0
2017-10-12T01:29:13.058Z,0
2017-10-12T01:30:23.361Z,0
2017-10-12T01:31:33.660Z,0
2017-10-12T01:32:43.634Z,0
2017-10-12T01:33:54.183Z,0
2017-10-12T01:35:04.149Z,0
2017-10-12T01:36:14.111Z,0
2017-10-12T01:37:24.456Z,0
2017-10-12T01:38:34.751Z,0
2017-10-12T01:39:44.967Z,0
2017-10-12T01:40:55.277Z,0
2017-10-12T01:42:05.263Z,0
2017-10-12T01:43:15.548Z,0
2017-10-12T01:44:25.852Z,0
2017-10-12T01:45:36.391Z,0
2017-10-12T01:46:46.685Z,0
2017-10-12T01:47:57.015Z,0
2017-10-12T01:49:07.312Z,0
2017-10-12T01:50:17.612Z,0
2017-10-12T01:51:28.153Z,0
2017-10-12T01:52:38.116Z,0
2017-10-12T01:53:48.435Z,0
2017-10-12T01:54:58.736Z,0
2017-10-12T01:56:09.017Z,0
2017-10-12T01:57:18.906Z,0
2017-10-12T01:58:29.201Z,0
2017-10-12T01:59:39.507Z,0
2017-10-12T02:00:49.477Z,0
2017-10-12T02:01:59.781Z,0
2017-10-12T02:03:10.314Z,0
2017-10-12T02:04:20.608Z,0
2017-10-12T02:05:30.904Z,0
2017-10-12T02:06:41.196Z,0
2017-10-12T02:07:51.485Z,0
2017-10-12T02:09:01.709Z,0
2017-10-12T02:10:12.014Z,0
2017-10-12T02:11:22.316Z,0
2017-10-12T02:12:32.620Z,0
2017-10-12T02:13:42.590Z,0
2017-10-12T02:14:53.133Z,0
2017-10-12T02:16:03.417Z,0
2017-10-12T02:17:13.709Z,0
2017-10-12T02:18:24.017Z,0
2017-10-12T02:19:34.312Z,0
2017-10-12T02:20:44.849Z,0
2017-10-12T02:21:55.136Z,0
2017-10-12T02:23:05.424Z,0
2017-10-12T02:24:15.744Z,0
2017-10-12T02:25:25.385Z,0
2017-10-12T02:26:36.338Z,0
2017-10-12T02:27:46.661Z,0
2017-10-12T02:28:56.955Z,0
2017-10-12T02:30:06.919Z,0
2017-10-12T02:31:17.218Z,0
2017-10-12T02:32:27.765Z,0
2017-10-12T02:33:37.730Z,0
2017-10-12T02:34:47.705Z,0
2017-10-12T02:35:58.048Z,0
2017-10-12T02:37:07.724Z,0
2017-10-12T02:38:18.326Z,0
2017-10-12T02:39:28.292Z,0
2017-10-12T02:40:38.590Z,0
2017-10-12T02:41:48.881Z,0
2017-10-12T02:42:59.172Z,0
2017-10-12T02:44:09.733Z,0
2017-10-12T02:45:19.701Z,0
2017-10-12T02:46:29.996Z,0
2017-10-12T02:47:40.285Z,0
2017-10-12T02:48:50.598Z,0
2017-10-12T02:50:01.141Z,0
2017-10-12T02:51:11.117Z,0
2017-10-12T02:52:21.414Z,0
2017-10-12T02:53:31.726Z,0
2017-10-12T02:54:42.060Z,0
2017-10-12T02:55:52.655Z,0
2017-10-12T02:57:02.628Z,0
2017-10-12T02:58:12.590Z,0
2017-10-12T02:59:22.567Z,0
2017-10-12T03:00:32.908Z,0
2017-10-12T03:01:43.461Z,0
2017-10-12T03:02:53.764Z,0
2017-10-12T03:04:04.057Z,0
2017-10-12T03:05:14.350Z,0
2017-10-12T03:06:24.643Z,0
2017-10-12T03:07:35.199Z,0
2017-10-12T03:08:45.485Z,0
2017-10-12T03:09:55.786Z,0
2017-10-12T03:11:06.087Z,0
2017-10-12T03:12:16.046Z,0
2017-10-12T03:13:26.583Z,0
2017-10-12T03:14:36.228Z,0
2017-10-12T03:15:46.252Z,0
2017-10-12T03:16:56.217Z,0
2017-10-12T03:18:06.510Z,0
2017-10-12T03:19:17.056Z,0
2017-10-12T03:20:27.355Z,0
2017-10-12T03:21:37.653Z,0
2017-10-12T03:22:47.953Z,0
2017-10-12T03:23:57.922Z,0
2017-10-12T03:25:08.461Z,0
2017-10-12T03:26:18.755Z,0
2017-10-12T03:27:29.047Z,0
2017-10-12T03:28:39.014Z,0
2017-10-12T03:29:48.999Z,0
2017-10-12T03:30:59.545Z,0
2017-10-12T03:32:09.514Z,0
2017-10-12T03:33:19.475Z,0
2017-10-12T03:34:29.766Z,0
2017-10-12T03:35:40.056Z,0
2017-10-12T03:36:50.280Z,0
2017-10-12T03:38:00.583Z,0
2017-10-12T03:39:10.869Z,0
2017-10-12T03:40:20.876Z,0
2017-10-12T03:41:31.158Z,0
2017-10-12T03:42:41.385Z,0
2017-10-12T03:43:51.031Z,0
2017-10-12T03:45:00.996Z,0
2017-10-12T03:46:11.285Z,0
2017-10-12T03:47:21.610Z,0
2017-10-12T03:48:32.175Z,0
2017-10-12T03:49:42.153Z,0
2017-10-12T03:50:52.448Z,0
2017-10-12T03:52:02.778Z,0
2017-10-12T03:53:12.764Z,0
2017-10-12T03:54:22.982Z,0
2017-10-12T03:55:33.268Z,0
2017-10-12T03:56:43.552Z,0
2017-10-12T03:57:53.841Z,0
2017-10-12T03:59:03.801Z,0
2017-10-12T04:00:14.340Z,0
2017-10-12T04:01:24.318Z,0
2017-10-12T04:02:34.632Z,0
2017-10-12T04:03:44.923Z,0
2017-10-12T04:04:55.224Z,0
2017-10-12T04:06:05.762Z,0
2017-10-12T04:07:16.061Z,0
2017-10-12T04:08:26.357Z,0
2017-10-12T04:09:36.545Z,0
2017-10-12T04:10:45.864Z,0
2017-10-12T04:11:56.402Z,0
2017-10-12T04:13:06.360Z,0
2017-10-12T04:14:16.023Z,0
2017-10-12T04:15:26.343Z,0
2017-10-12T04:16:36.672Z,0
2017-10-12T04:17:46.886Z,0
2017-10-12T04:18:56.851Z,0
2017-10-12T04:20:07.143Z,0
2017-10-12T04:21:17.452Z,0
2017-10-12T04:22:27.753Z,0
2017-10-12T04:23:38.301Z,0
2017-10-12T04:24:48.259Z,0
2017-10-12T04:25:58.575Z,0
2017-10-12T04:27:08.886Z,0
2017-10-12T04:28:18.856Z,0
2017-10-12T04:29:29.414Z,0
2017-10-12T04:30:39.695Z,0
2017-10-12T04:31:49.998Z,0
2017-10-12T04:33:00.292Z,0
2017-10-12T04:34:10.587Z,0
2017-10-12T04:35:21.129Z,0
2017-10-12T04:36:31.454Z,0
2017-10-12T04:37:41.753Z,0
2017-10-12T04:38:51.728Z,0
2017-10-12T04:40:02.048Z,0
2017-10-12T04:41:12.600Z,0
2017-10-12T04:42:22.914Z,0
2017-10-12T04:43:33.218Z,0
2017-10-12T04:44:43.184Z,0
2017-10-12T04:45:53.157Z,0
2017-10-12T04:47:03.721Z,0
2017-10-12T04:48:14.006Z,0
2017-10-12T04:49:23.972Z,0
2017-10-12T04:50:34.273Z,0
2017-10-12T04:51:43.935Z,0
2017-10-12T04:52:54.474Z,0
2017-10-12T04:54:04.770Z,0
2017-10-12T04:55:14.763Z,0
2017-10-12T04:56:24.734Z,0
2017-10-12T04:57:34.697Z,0
2017-10-12T04:58:45.250Z,0
2017-10-12T04:59:55.557Z,4
2017-10-12T05:01:05.853Z,4
2017-10-12T05:02:15.819Z,4
2017-10-12T05:03:25.794Z,4
2017-10-12T05:04:36.391Z,4
2017-10-12T05:05:46.698Z,4
2017-10-12T05:06:56.991Z,4
2017-10-12T05:08:07.287Z,8
2017-10-12T05:09:17.276Z,8
2017-10-12T05:10:27.842Z,8
2017-10-12T05:11:38.148Z,12
2017-10-12T05:12:48.460Z,16
2017-10-12T05:13:58.437Z,20
2017-10-12T05:15:08.731Z,24
2017-10-12T05:16:18.611Z,36
2017-10-12T05:17:29.134Z,48
2017-10-12T05:18:39.429Z,60
2017-10-12T05:19:49.397Z,72
2017-10-12T05:20:59.687Z,80
2017-10-12T05:22:10.235Z,96
2017-10-12T05:23:20.216Z,104
2017-10-12T05:24:30.499Z,112
2017-10-12T05:25:40.497Z,124
2017-10-12T05:26:50.802Z,132
2017-10-12T05:28:01.356Z,140
2017-10-12T05:29:11.652Z,156
2017-10-12T05:30:21.978Z,172
2017-10-12T05:31:32.274Z,184
2017-10-12T05:32:42.569Z,200
2017-10-12T05:33:53.115Z,216
2017-10-12T05:35:03.432Z,244
2017-10-12T05:36:13.747Z,264
2017-10-12T05:37:24.041Z,288
2017-10-12T05:38:34.336Z,304
2017-10-12T05:39:44.631Z,312
2017-10-12T05:40:54.929Z,320
2017-10-12T05:42:05.221Z,352
2017-10-12T05:43:14.865Z,388
2017-10-12T05:44:25.161Z,444
2017-10-12T05:45:35.393Z,504
2017-10-12T05:46:45.713Z,536
2017-10-12T05:47:56.007Z,612
2017-10-12T05:49:06.001Z,652
2017-10-12T05:50:15.994Z,752
2017-10-12T05:51:26.539Z,828
2017-10-12T05:52:36.539Z,1052
2017-10-12T05:53:46.523Z,1196
2017-10-12T05:54:56.862Z,1444
2017-10-12T05:56:06.848Z,1696
2017-10-12T05:57:17.386Z,1944
2017-10-12T05:58:27.743Z,2144
2017-10-12T05:59:38.064Z,2336
2017-10-12T06:00:48.368Z,2516
2017-10-12T06:01:58.660Z,2516
2017-10-12T06:03:09.205Z,2588
2017-10-12T06:04:19.541Z,2780
2017-10-12T06:05:29.185Z,2600
2017-10-12T06:06:39.504Z,2476
2017-10-12T06:07:49.891Z,2692
2017-10-12T06:09:00.182Z,2852
2017-10-12T06:10:10.574Z,2828
2017-10-12T06:11:21.034Z,2216
2017-10-12T06:12:31.427Z,1884
2017-10-12T06:13:41.455Z,2192
2017-10-12T06:14:51.710Z,2420
2017-10-12T06:16:02.010Z,2728
2017-10-12T06:17:11.663Z,3056
2017-10-12T06:18:21.981Z,3116
2017-10-12T06:19:32.292Z,3084
2017-10-12T06:20:42.530Z,2960
2017-10-12T06:21:52.861Z,2948
2017-10-12T06:23:03.209Z,3192
2017-10-12T06:24:13.522Z,2552
2017-10-12T06:25:23.546Z,2172
2017-10-12T06:26:34.124Z,2048
2017-10-12T06:27:44.428Z,2024
2017-10-12T06:28:54.722Z,1808
2017-10-12T06:30:04.685Z,2172
2017-10-12T06:31:14.667Z,2732
2017-10-12T06:32:25.204Z,2316
2017-10-12T06:33:35.193Z,2484
2017-10-12T06:34:45.486Z,3048
2017-10-12T06:35:55.793Z,3580
2017-10-12T06:37:05.126Z,4668
2017-10-12T06:38:14.705Z,5640
2017-10-12T06:39:25.017Z,6932
2017-10-12T06:40:35.013Z,7796
2017-10-12T06:41:44.999Z,7200
2017-10-12T06:42:54.961Z,6816
2017-10-12T06:44:05.245Z,7812
2017-10-12T06:45:15.254Z,8036
2017-10-12T06:46:25.808Z,7756
2017-10-12T06:47:36.111Z,7368
2017-10-12T06:48:46.107Z,7628
2017-10-12T06:49:56.006Z,7392
2017-10-12T06:51:06.376Z,6452
2017-10-12T06:52:16.020Z,5644
2017-10-12T06:53:26.079Z,5788
2017-10-12T06:54:36.465Z,6252
2017-10-12T06:55:47.124Z,5428
2017-10-12T06:56:57.138Z,5308
2017-10-12T06:58:07.114Z,5908
2017-10-12T06:59:17.422Z,6048
2017-10-12T07:00:27.407Z,5532
2017-10-12T07:01:37.627Z,5652
2017-10-12T07:02:47.941Z,5664
2017-10-12T07:03:57.934Z,5292
2017-10-12T07:05:07.604Z,5532
2017-10-12T07:06:18.182Z,4260
2017-10-12T07:07:28.866Z,4448
2017-10-12T07:08:39.196Z,4076
2017-10-12T07:09:49.192Z,4216
2017-10-12T07:10:59.494Z,4868
2017-10-12T07:12:09.802Z,4956
2017-10-12T07:13:19.373Z,5060
2017-10-12T07:14:29.696Z,4960
2017-10-12T07:15:40.049Z,5528
2017-10-12T07:16:50.007Z,6272
2017-10-12T07:17:59.977Z,6968
2017-10-12T07:19:10.581Z,7288
2017-10-12T07:20:20.565Z,7184
2017-10-12T07:21:30.867Z,6924
2017-10-12T07:22:41.232Z,5592
2017-10-12T07:23:51.221Z,4052
2017-10-12T07:25:01.458Z,3984
2017-10-12T07:26:11.461Z,4276
2017-10-12T07:27:21.813Z,4104
2017-10-12T07:28:32.113Z,3820
2017-10-12T07:29:41.782Z,4224
2017-10-12T07:30:52.403Z,4608
2017-10-12T07:32:02.075Z,5292
2017-10-12T07:33:12.131Z,6596
2017-10-12T07:34:22.466Z,7892
2017-10-12T07:35:32.780Z,8856
2017-10-12T07:36:43.030Z,10128
2017-10-12T07:37:53.329Z,10744
2017-10-12T07:39:03.296Z,11484
2017-10-12T07:40:13.596Z,12532
2017-10-12T07:41:23.920Z,12396
2017-10-12T07:42:34.509Z,9340
2017-10-12T07:43:44.840Z,9656
2017-10-12T07:44:54.818Z,10796
2017-10-12T07:46:05.122Z,12692
2017-10-12T07:47:15.440Z,15072
2017-10-12T07:48:25.985Z,17472
2017-10-12T07:49:36.290Z,18592
2017-10-12T07:50:46.576Z,23488
2017-10-12T07:51:56.560Z,19808
2017-10-12T07:53:06.868Z,22848
2017-10-12T07:54:17.428Z,12504
2017-10-12T07:55:27.397Z,10856
2017-10-12T07:56:37.719Z,9656
2017-10-12T07:57:47.685Z,8624
2017-10-12T07:58:58.039Z,9272
2017-10-12T08:00:08.602Z,14824
2017-10-12T08:01:18.946Z,15120
2017-10-12T08:02:28.938Z,27264
2017-10-12T08:03:38.912Z,28320
2017-10-12T08:04:48.894Z,17512
2017-10-12T08:05:59.450Z,25984
2017-10-12T08:07:09.754Z,33472
2017-10-12T08:08:20.051Z,19168
2017-10-12T08:09:30.363Z,17284
2017-10-12T08:10:40.325Z,17888
2017-10-12T08:11:50.638Z,27744
2017-10-12T08:13:00.611Z,10816
2017-10-12T08:14:10.933Z,10328
2017-10-12T08:15:21.247Z,11128
2017-10-12T08:16:31.542Z,15840
2017-10-12T08:17:41.767Z,36288
2017-10-12T08:18:51.422Z,23200
2017-10-12T08:20:01.773Z,20032
2017-10-12T08:21:12.108Z,14324
2017-10-12T08:22:22.116Z,14732
2017-10-12T08:23:32.711Z,32448
2017-10-12T08:24:43.074Z,37632
2017-10-12T08:25:53.053Z,16964
2017-10-12T08:27:02.394Z,38560
2017-10-12T08:28:12.402Z,44512
2017-10-12T08:29:22.653Z,30464
2017-10-12T08:30:32.964Z,18400
2017-10-12T08:31:43.301Z,19584
2017-10-12T08:32:53.334Z,39968
2017-10-12T08:34:03.634Z,13848
2017-10-12T08:35:13.861Z,20384
2017-10-12T08:36:24.176Z,26784
2017-10-12T08:37:34.160Z,47968
2017-10-12T08:38:43.812Z,20544
2017-10-12T08:39:53.487Z,19008
2017-10-12T08:41:03.715Z,35968
2017-10-12T08:42:13.692Z,47616
2017-10-12T08:43:24.026Z,49888
2017-10-12T08:44:33.999Z,29856
2017-10-12T08:45:44.306Z,47328
2017-10-12T08:46:54.913Z,49152
2017-10-12T08:48:05.247Z,45824
2017-10-12T08:49:15.563Z,21984
2017-10-12T08:50:25.862Z,33888
2017-10-12T08:51:36.160Z,52512
2017-10-12T08:52:46.392Z,51488
2017-10-12T08:53:56.049Z,51456
2017-10-12T08:55:06.370Z,23296
2017-10-12T08:56:16.688Z,38912
2017-10-12T08:57:26.672Z,35872
2017-10-12T08:58:36.583Z,25632
2017-10-12T08:59:46.877Z,63392
2017-10-12T09:00:57.178Z,54784
2017-10-12T09:02:07.160Z,52128
2017-10-12T09:03:17.146Z,37952
2017-10-12T09:04:27.053Z,48288
2017-10-12T09:05:37.371Z,63840
2017-10-12T09:06:47.353Z,31808
2017-10-12T09:07:57.011Z,72736
2017-10-12T09:09:06.983Z,75040
2017-10-12T09:10:17.589Z,25888
2017-10-12T09:11:27.570Z,21664
2017-10-12T09:12:37.872Z,14488
2017-10-12T09:13:48.191Z,12620
2017-10-12T09:14:58.182Z,20416
2017-10-12T09:16:08.421Z,19872
2017-10-12T09:17:18.399Z,14992
2017-10-12T09:18:28.051Z,22624
2017-10-12T09:19:38.367Z,26688
2017-10-12T09:20:48.672Z,72192
2017-10-12T09:21:59.227Z,77920
2017-10-12T09:23:09.529Z,74784
2017-10-12T09:24:19.849Z,25440
2017-10-12T09:25:30.149Z,21440
2017-10-12T09:26:40.125Z,17824
2017-10-12T09:27:50.692Z,19264
2017-10-12T09:29:01.001Z,23680
2017-10-12T09:30:10.980Z,22048
2017-10-12T09:31:21.298Z,20928
2017-10-12T09:32:31.636Z,23520
2017-10-12T09:33:42.252Z,27008
2017-10-12T09:34:52.580Z,31904
2017-10-12T09:36:02.574Z,29472
2017-10-12T09:37:12.921Z,54784
2017-10-12T09:38:23.383Z,23264
2017-10-12T09:39:33.599Z,19872
2017-10-12T09:40:43.620Z,21568
2017-10-12T09:41:53.952Z,24480
2017-10-12T09:43:04.432Z,29632
2017-10-12T09:44:14.774Z,69728
2017-10-12T09:45:25.337Z,67840
2017-10-12T09:46:35.684Z,64960
2017-10-12T09:47:46.017Z,54880
2017-10-12T09:48:56.324Z,64064
2017-10-12T09:50:06.300Z,55680
2017-10-12T09:51:16.855Z,26784
2017-10-12T09:52:26.832Z,29696
2017-10-12T09:53:37.035Z,25344
2017-10-12T09:54:47.375Z,22656
2017-10-12T09:55:57.679Z,28960
2017-10-12T09:57:07.930Z,54272
2017-10-12T09:58:18.282Z,16176
2017-10-12T09:59:28.592Z,11812
2017-10-12T10:00:38.889Z,10256
2017-10-12T10:01:48.859Z,7972
2017-10-12T10:02:59.485Z,6408
2017-10-12T10:04:09.161Z,6072
2017-10-12T10:05:19.463Z,6708
2017-10-12T10:06:29.790Z,7152
2017-10-12T10:07:39.777Z,6632
2017-10-12T10:08:50.328Z,5400
2017-10-12T10:10:00.649Z,5460
2017-10-12T10:11:10.954Z,4716
2017-10-12T10:12:21.256Z,3540
2017-10-12T10:13:31.232Z,3824
2017-10-12T10:14:41.452Z,4932
2017-10-12T10:15:51.763Z,4884
2017-10-12T10:17:02.070Z,4984
2017-10-12T10:18:12.370Z,4832
2017-10-12T10:19:22.679Z,4456
2017-10-12T10:20:33.220Z,5588
2017-10-12T10:21:43.195Z,6500
2017-10-12T10:22:53.520Z,6340
2017-10-12T10:24:03.487Z,8984
2017-10-12T10:25:13.456Z,12180
2017-10-12T10:26:23.696Z,13804
2017-10-12T10:27:33.991Z,13516
2017-10-12T10:28:44.301Z,15740
2017-10-12T10:29:54.628Z,18592
2017-10-12T10:31:04.949Z,17824
2017-10-12T10:32:15.190Z,13988
2017-10-12T10:33:25.188Z,14184
2017-10-12T10:34:35.788Z,16588
2017-10-12T10:35:45.813Z,23040
2017-10-12T10:36:56.116Z,31872
2017-10-12T10:38:06.671Z,32864
2017-10-12T10:39:16.668Z,30848
2017-10-12T10:40:26.994Z,57248
2017-10-12T10:41:37.297Z,28928
2017-10-12T10:42:47.526Z,30016
2017-10-12T10:43:57.823Z,91968
2017-10-12T10:45:07.501Z,102432
2017-10-12T10:46:17.506Z,31840
2017-10-12T10:47:27.827Z,93536
2017-10-12T10:48:37.811Z,105376
2017-10-12T10:49:48.388Z,87872
2017-10-12T10:50:58.750Z,94208
2017-10-12T10:52:09.079Z,101472
2017-10-12T10:53:19.069Z,105504
2017-10-12T10:54:29.410Z,37088
2017-10-12T10:55:39.966Z,106656
2017-10-12T10:56:49.984Z,70464
2017-10-12T10:58:00.294Z,55840
2017-10-12T10:59:10.593Z,36128
2017-10-12T11:00:20.910Z,56608
2017-10-12T11:01:31.480Z,56800
2017-10-12T11:02:41.456Z,43744
2017-10-12T11:03:51.804Z,21152
2017-10-12T11:05:02.123Z,26368
2017-10-12T11:06:12.126Z,46784
2017-10-12T11:07:22.360Z,60992
2017-10-12T11:08:32.675Z,43968
2017-10-12T11:09:42.998Z,75584
2017-10-12T11:10:53.316Z,73376
2017-10-12T11:12:03.612Z,70560
2017-10-12T11:13:13.870Z,58432
2017-10-12T11:14:24.167Z,40640
2017-10-12T11:15:34.148Z,49472
2017-10-12T11:16:44.153Z,43328
2017-10-12T11:17:54.138Z,44896
2017-10-12T11:19:04.689Z,47104
2017-10-12T11:20:15.091Z,43872
2017-10-12T11:21:25.421Z,51360
2017-10-12T11:22:35.089Z,27744
2017-10-12T11:23:45.387Z,58336
2017-10-12T11:24:55.952Z,19264
2017-10-12T11:26:05.935Z,22336
2017-10-12T11:27:15.591Z,47520
2017-10-12T11:28:25.576Z,84288
2017-10-12T11:29:35.893Z,46656
2017-10-12T11:30:46.454Z,121056
2017-10-12T11:31:56.749Z,118720
2017-10-12T11:33:07.043Z,34304
2017-10-12T11:34:17.346Z,107040
2017-10-12T11:35:27.670Z,116992
2017-10-12T11:36:38.259Z,108288
2017-10-12T11:37:48.269Z,114944
2017-10-12T11:38:58.569Z,102432
2017-10-12T11:40:08.874Z,113664
2017-10-12T11:41:19.207Z,113856
2017-10-12T11:42:29.762Z,114144
2017-10-12T11:43:40.063Z,118112
2017-10-12T11:44:50.050Z,118560
2017-10-12T11:46:00.362Z,120640
2017-10-12T11:47:10.680Z,114496
2017-10-12T11:48:20.906Z,114880
2017-10-12T11:49:31.210Z,115200
2017-10-12T11:50:41.178Z,118080
2017-10-12T11:51:50.838Z,84608
2017-10-12T11:53:00.865Z,115776
2017-10-12T11:54:11.413Z,120128
2017-10-12T11:55:21.756Z,117824
2017-10-12T11:56:31.437Z,118208
2017-10-12T11:57:41.426Z,105952
2017-10-12T11:58:51.767Z,114880
2017-10-12T12:00:02.626Z,87072
2017-10-12T12:01:12.979Z,79712
2017-10-12T12:02:22.960Z,108704
2017-10-12T12:03:33.295Z,104000
2017-10-12T12:04:43.619Z,43936
2017-10-12T12:05:54.251Z,119328
2017-10-12T12:07:04.592Z,111808
2017-10-12T12:08:14.930Z,102912
2017-10-12T12:09:24.943Z,123040
2017-10-12T12:10:34.594Z,116192
2017-10-12T12:11:45.176Z,123328
2017-10-12T12:12:55.550Z,123968
2017-10-12T12:14:05.898Z,109408
2017-10-12T12:15:15.899Z,107328
2017-10-12T12:16:26.266Z,94272
2017-10-12T12:17:36.536Z,60128
2017-10-12T12:18:46.848Z,50688
2017-10-12T12:19:56.815Z,116800
2017-10-12T12:21:07.138Z,47424
2017-10-12T12:22:17.460Z,44192
2017-10-12T12:23:28.015Z,117440
2017-10-12T12:24:38.332Z,121056
2017-10-12T12:25:48.659Z,122688
2017-10-12T12:26:58.639Z,119072
2017-10-12T12:28:08.640Z,106880
2017-10-12T12:29:19.250Z,75840
2017-10-12T12:30:29.264Z,104544
2017-10-12T12:31:39.618Z,117472
2017-10-12T12:32:49.966Z,116448
2017-10-12T12:34:00.284Z,111424
2017-10-12T12:35:10.896Z,66432
2017-10-12T12:36:21.185Z,56992
2017-10-12T12:37:30.858Z,110432
2017-10-12T12:38:40.866Z,115520
2017-10-12T12:39:51.219Z,118144
2017-10-12T12:41:01.240Z,116448
2017-10-12T12:42:11.235Z,115200
2017-10-12T12:43:21.591Z,99968
2017-10-12T12:44:31.922Z,94560
2017-10-12T12:45:42.271Z,103328
2017-10-12T12:46:52.834Z,93472
2017-10-12T12:48:03.153Z,105088
2017-10-12T12:49:13.466Z,109152
2017-10-12T12:50:23.793Z,98016
2017-10-12T12:51:34.120Z,35104
2017-10-12T12:52:44.353Z,30944
2017-10-12T12:53:54.691Z,93024
2017-10-12T12:55:05.025Z,34944
2017-10-12T12:56:14.953Z,97696
2017-10-12T12:57:25.253Z,28608
2017-10-12T12:58:35.838Z,36896
2017-10-12T12:59:46.149Z,22528
2017-10-12T13:00:56.130Z,20480
2017-10-12T13:02:06.109Z,61504
2017-10-12T13:03:16.407Z,28288
2017-10-12T13:04:26.971Z,26752
2017-10-12T13:05:37.249Z,81632
2017-10-12T13:06:47.618Z,72608
2017-10-12T13:07:57.835Z,32032
2017-10-12T13:09:07.513Z,53664
2017-10-12T13:10:18.116Z,39648
2017-10-12T13:11:28.444Z,29472
2017-10-12T13:12:38.787Z,54944
2017-10-12T13:13:49.142Z,31872
2017-10-12T13:14:59.525Z,62240
2017-10-12T13:16:09.835Z,66816
2017-10-12T13:17:19.842Z,33056
2017-10-12T13:18:30.218Z,64800
2017-10-12T13:19:40.591Z,58272
2017-10-12T13:20:50.621Z,23776
2017-10-12T13:22:01.238Z,21152
2017-10-12T13:23:11.338Z,20864
2017-10-12T13:24:21.799Z,23008
2017-10-12T13:25:32.298Z,49248
2017-10-12T13:26:42.437Z,21440
2017-10-12T13:27:52.452Z,22272
2017-10-12T13:29:02.919Z,19456
2017-10-12T13:30:13.338Z,50304
2017-10-12T13:31:23.746Z,54176
2017-10-12T13:32:33.775Z,60256
2017-10-12T13:33:44.432Z,21184
2017-10-12T13:34:54.832Z,65344
2017-10-12T13:36:05.247Z,62816
2017-10-12T13:37:15.614Z,65696
2017-10-12T13:38:25.307Z,68576
2017-10-12T13:39:35.587Z,64160
2017-10-12T13:40:45.940Z,58080
2017-10-12T13:41:56.304Z,25824
2017-10-12T13:43:06.652Z,24896
2017-10-12T13:44:17.015Z,42784
2017-10-12T13:45:27.683Z,33600
2017-10-12T13:46:37.791Z,18752
2017-10-12T13:47:47.907Z,69696
2017-10-12T13:48:57.609Z,99712
2017-10-12T13:50:07.763Z,99936
2017-10-12T13:51:18.475Z,96448
2017-10-12T13:52:28.658Z,97216
2017-10-12T13:53:39.158Z,103040
2017-10-12T13:54:49.794Z,104448
2017-10-12T13:56:00.430Z,83840
2017-10-12T13:57:11.427Z,97696
2017-10-12T13:58:21.875Z,89664
2017-10-12T13:59:32.713Z,39872
2017-10-12T14:00:43.166Z,16788
2017-10-12T14:01:53.933Z,17300
2017-10-12T14:03:04.169Z,87360
2017-10-12T14:04:14.940Z,21088
2017-10-12T14:05:25.041Z,17824
2017-10-12T14:06:35.019Z,17888
2017-10-12T14:07:45.339Z,50240
2017-10-12T14:08:55.959Z,82400
2017-10-12T14:10:06.258Z,74624
2017-10-12T14:11:16.565Z,21536
2017-10-12T14:12:26.871Z,29184
2017-10-12T14:13:37.172Z,14136
2017-10-12T14:14:47.723Z,14112
2017-10-12T14:15:58.025Z,15120
2017-10-12T14:17:08.008Z,18528
2017-10-12T14:18:17.344Z,23936
2017-10-12T14:19:27.677Z,77888
2017-10-12T14:20:37.588Z,62080
2017-10-12T14:21:47.886Z,22816
2017-10-12T14:22:57.881Z,67712
2017-10-12T14:24:08.175Z,83584
2017-10-12T14:25:18.476Z,79520
2017-10-12T14:26:29.085Z,74944
2017-10-12T14:27:39.391Z,71968
2017-10-12T14:28:49.701Z,81472
2017-10-12T14:30:00.024Z,76096
2017-10-12T14:31:09.995Z,69824
2017-10-12T14:32:20.590Z,57696
2017-10-12T14:33:30.908Z,22144
2017-10-12T14:34:41.216Z,22496
2017-10-12T14:35:51.524Z,16704
2017-10-12T14:37:01.848Z,16428
2017-10-12T14:38:12.406Z,57856
2017-10-12T14:39:22.403Z,38272
2017-10-12T14:40:32.395Z,57472
2017-10-12T14:41:42.735Z,57280
2017-10-12T14:42:52.388Z,50560
2017-10-12T14:44:02.979Z,58496
2017-10-12T14:45:12.957Z,57888
2017-10-12T14:46:23.274Z,44416
2017-10-12T14:47:33.602Z,48352
2017-10-12T14:48:43.266Z,49440
2017-10-12T14:49:53.823Z,34048
2017-10-12T14:51:04.145Z,45664
2017-10-12T14:52:14.463Z,41248
2017-10-12T14:53:24.801Z,53376
2017-10-12T14:54:34.808Z,36480
2017-10-12T14:55:45.383Z,42016
2017-10-12T14:56:55.061Z,41152
2017-10-12T14:58:04.964Z,45920
2017-10-12T14:59:15.278Z,48896
2017-10-12T15:00:25.584Z,50720
2017-10-12T15:01:36.140Z,50816
2017-10-12T15:02:46.130Z,41024
2017-10-12T15:03:56.153Z,46496
2017-10-12T15:05:06.500Z,49568
2017-10-12T15:06:16.490Z,37088
2017-10-12T15:07:27.064Z,32480
2017-10-12T15:08:37.358Z,32832
2017-10-12T15:09:47.390Z,38848
2017-10-12T15:10:57.687Z,31584
2017-10-12T15:12:07.355Z,32128
2017-10-12T15:13:17.279Z,23936
2017-10-12T15:14:27.591Z,28544
2017-10-12T15:15:37.578Z,25600
2017-10-12T15:16:47.900Z,25440
2017-10-12T15:17:57.890Z,22368
2017-10-12T15:19:08.494Z,24704
2017-10-12T15:20:18.810Z,26496
2017-10-12T15:21:29.150Z,24160
2017-10-12T15:22:39.766Z,18464
2017-10-12T15:23:49.792Z,21984
2017-10-12T15:25:00.027Z,19680
2017-10-12T15:26:10.020Z,23136
2017-10-12T15:27:20.343Z,17984
2017-10-12T15:28:30.330Z,14240
2017-10-12T15:29:39.998Z,14880
2017-10-12T15:30:50.619Z,14464
2017-10-12T15:32:00.948Z,13600
2017-10-12T15:33:11.267Z,10092
2017-10-12T15:34:21.574Z,9228
2017-10-12T15:35:31.559Z,8584
2017-10-12T15:36:42.136Z,7944
2017-10-12T15:37:52.454Z,7952
2017-10-12T15:39:02.801Z,7224
2017-10-12T15:40:13.105Z,6748
2017-10-12T15:41:23.413Z,6548
2017-10-12T15:42:33.654Z,6416
2017-10-12T15:43:43.654Z,6252
2017-10-12T15:44:53.956Z,5352
2017-10-12T15:46:04.269Z,4832
2017-10-12T15:47:14.594Z,4448
2017-10-12T15:48:25.192Z,4092
2017-10-12T15:49:35.178Z,3888